| time (UTC) | temp F | wind direction | speed knots | gust knots | rain 1hr in | rain 24hr in | rain mn in | humidity % | barometer mb |
| 20260509212746 | 69 | 237 | 0.9 | 1.7 | 0.00 | 0.00 | 0.00 | 56 | 1026.5 |
| 20260509205746 | 69 | 222 | 1.7 | 1.7 | 0.00 | 0.00 | 0.00 | 59 | 1026.7 |
| 20260509202742 | 69 | 206 | 0.9 | 0.9 | 0.00 | 0.00 | 0.00 | 56 | 1027.2 |
| 20260509195740 | 69 | 264 | 1.7 | 1.7 | 0.00 | 0.00 | 0.00 | 58 | 1027.4 |
| 20260509192737 | 70 | 275 | 2.6 | 2.6 | 0.00 | 0.00 | 0.00 | 56 | 1028.0 |
| 20260509185738 | 68 | 242 | 1.7 | 1.7 | 0.00 | 0.00 | 0.00 | 61 | 1028.4 |
| 20260509182733 | 67 | 251 | 1.7 | 1.7 | 0.00 | 0.00 | 0.00 | 61 | 1028.5 |
| 20260509175732 | 66 | 259 | 1.7 | 1.7 | 0.00 | 0.00 | 0.00 | 65 | 1028.8 |
| 20260509172732 | 66 | 200 | 0.9 | 0.9 | 0.00 | 0.00 | 0.00 | 68 | 1028.9 |
| 20260509165729 | 63 | 220 | 0.9 | 0.9 | 0.00 | 0.00 | 0.00 | 72 | 1029.0 |
| 20260509162726 | 61 | 214 | 0.9 | 0.9 | 0.00 | 0.00 | 0.00 | 75 | 1029.3 |
| 20260509155724 | 59 | 203 | 0.0 | 0.0 | 0.00 | 0.00 | 0.00 | 78 | 1029.5 |
| 20260509152721 | 57 | 232 | 0.9 | 0.9 | 0.00 | 0.00 | 0.00 | 81 | 1029.6 |
| 20260509145716 | 52 | 203 | 0.0 | 0.0 | 0.00 | 0.00 | 0.00 | 91 | 1030.1 |
| 20260509142712 | 49 | 201 | 0.0 | 0.0 | 0.00 | 0.00 | 0.00 | 95 | 1030.4 |
| 20260509135710 | 47 | 199 | 0.0 | 0.0 | 0.00 | 0.00 | 0.00 | 99 | 1030.4 |
| 20260509132706 | 46 | 174 | 0.0 | 0.9 | 0.00 | 0.00 | 0.00 | 99 | 1030.6 |
| 20260509125703 | 47 | 199 | 0.0 | 0.9 | 0.00 | 0.00 | 0.00 | 99 | 1030.1 |
| 20260509122701 | 48 | 198 | 0.0 | 0.0 | 0.00 | 0.00 | 0.00 | 99 | 1030.4 |
| 20260509115658 | 48 | 203 | 0.0 | 0.0 | 0.00 | 0.00 | 0.00 | 99 | 1030.4 |
| 20260509112655 | 49 | 206 | 0.0 | 0.0 | 0.00 | 0.00 | 0.00 | 98 | 1030.5 |
| 20260509105655 | 50 | 210 | 0.0 | 0.0 | 0.00 | 0.00 | 0.00 | 97 | 1030.6 |
| 20260509102651 | 51 | 206 | 0.0 | 0.0 | 0.00 | 0.00 | 0.00 | 94 | 1030.9 |
| 20260509095649 | 52 | 205 | 0.0 | 0.0 | 0.00 | 0.00 | 0.00 | 93 | 1031.1 |
| 20260509092644 | 53 | 206 | 0.0 | 0.0 | 0.00 | 0.00 | 0.00 | 91 | 1031.0 |
| 20260509085640 | 52 | 204 | 0.0 | 0.0 | 0.00 | 0.00 | 0.00 | 92 | 1031.3 |
| 20260509082639 | 51 | 214 | 0.0 | 0.0 | 0.00 | 0.00 | 0.00 | 92 | 1031.3 |
| 20260509075636 | 50 | 194 | 0.9 | 0.9 | 0.00 | 0.00 | 0.00 | 94 | 1031.1 |
| 20260509072634 | 50 | 208 | 0.0 | 0.0 | 0.00 | 0.00 | 0.00 | 93 | 1031.2 |
| 20260509065631 | 50 | 198 | 0.0 | 0.0 | 0.00 | 0.00 | 0.00 | 93 | 1031.0 |
| 20260509062631 | 49 | 197 | 0.0 | 0.0 | 0.00 | 0.00 | 0.00 | 93 | 1030.5 |
| 20260509055629 | 52 | 199 | 1.7 | 1.7 | 0.00 | 0.00 | 0.00 | 88 | 1030.6 |
| 20260509052624 | 51 | 198 | 0.0 | 0.0 | 0.00 | 0.00 | 0.00 | 89 | 1030.4 |
| 20260509045619 | 53 | 200 | 0.0 | 0.0 | 0.00 | 0.00 | 0.00 | 84 | 1030.5 |
| 20260509042616 | 53 | 210 | 0.0 | 0.0 | 0.00 | 0.00 | 0.00 | 83 | 1030.2 |
| 20260509035615 | 54 | 204 | 0.0 | 0.0 | 0.00 | 0.00 | 0.00 | 81 | 1029.7 |
| 20260509032615 | 55 | 201 | 0.0 | 0.0 | 0.00 | 0.00 | 0.00 | 77 | 1029.6 |
| 20260509025610 | 57 | 207 | 0.0 | 0.0 | 0.00 | 0.00 | 0.00 | 74 | 1029.1 |
| 20260509022606 | 58 | 220 | 0.0 | 0.0 | 0.00 | 0.00 | 0.00 | 70 | 1029.1 |
| 20260509015603 | 61 | 214 | 0.0 | 0.9 | 0.00 | 0.00 | 0.00 | 66 | 1028.6 |
| 20260509012600 | 62 | 203 | 0.9 | 0.9 | 0.00 | 0.00 | 0.00 | 61 | 1028.8 |
| 20260509005600 | 62 | 177 | 0.9 | 1.7 | 0.00 | 0.00 | 0.00 | 60 | 1029.1 |
| 20260509002559 | 62 | 212 | 0.9 | 1.7 | 0.00 | 0.00 | 0.00 | 61 | 1029.3 |
| 20260508235559 | 62 | 213 | 0.9 | 1.7 | 0.00 | 0.00 | 0.00 | 60 | 1029.1 |
| 20260508232554 | 61 | 216 | 0.9 | 1.7 | 0.00 | 0.00 | 0.00 | 59 | 1029.1 |
| 20260508225554 | 62 | 207 | 0.0 | 0.9 | 0.00 | 0.00 | 0.00 | 59 | 1029.2 |
| 20260508222549 | 62 | 227 | 0.0 | 0.9 | 0.00 | 0.00 | 0.00 | 58 | 1029.3 |
| 20260508215547 | 64 | 224 | 1.7 | 1.7 | 0.00 | 0.00 | 0.00 | 56 | 1029.1 |